| parent folder | - | - |
| - | 1003159.json | 11515 | 2025-05-01 03:23:22 |
| - | 1003159_1379406_WhippyTail_duck_on_wet_carpet.png | 849251 | 2025-05-01 03:23:22 |
| - | 1068183.json | 11225 | 2025-05-02 04:23:30 |
| - | 1068183_1476470_Whippy_oozing_duck_chained.jpg | 627807 | 2025-05-02 04:23:30 |
| - | 1068846.json | 11783 | 2025-05-02 04:37:41 |
| - | 1068846_1477475_Whippy_whippy_rabbit_having_some_duck.png | 1823506 | 2025-05-02 04:37:41 |
| - | 1069524.json | 18982 | 2025-05-02 04:52:16 |
| - | 1069524_1478416_Whippy_otterfox_webby_and_whippy.png | 4290082 | 2025-05-02 04:52:16 |
| - | 1069625.json | 12818 | 2025-05-02 04:54:31 |
| - | 1069625_1478615_Whippy_cute_ducks_being_yiffy_playful_rainbow2.png | 827177 | 2025-05-02 04:54:31 |
| - | 1085259.json | 10727 | 2025-05-02 10:50:06 |
| - | 1085259_1500994_Whippy_gooeylouie.png | 711368 | 2025-05-02 10:50:06 |
| - | 1191450.json | 16641 | 2025-05-04 03:22:23 |
| - | 1191450_1660182_Whippy_naked_duck_butt.png | 699967 | 2025-05-04 03:22:24 |
| - | 1191450_1660823_Whippy_naked_duck_butt_color.png | 3380931 | 2025-05-04 03:22:23 |
| - | 1191450_1660829_Whippy_naked_duck_butt_color_bloom.png | 4247387 | 2025-05-04 03:22:23 |
| - | 1205853.json | 11795 | 2025-05-04 08:40:10 |
| - | 1205853_1682024_Whippy_page_o_ducks.png | 2169518 | 2025-05-04 08:40:10 |
| - | 1210835.json | 11632 | 2025-05-04 10:55:36 |
| - | 1210835_1689395_Whippy_bath_ducks.jpg | 2672681 | 2025-05-04 10:55:36 |
| - | 1212252.json | 9615 | 2025-05-04 11:28:51 |
| - | 1212252_1691506_Whippy_bath_ducks.png | 3589339 | 2025-05-04 11:28:51 |
| - | 1220136.json | 11502 | 2025-05-04 14:52:38 |
| - | 1220136_1703146_Whippy_duck_sucking_croc.jpg | 895012 | 2025-05-04 14:52:38 |
| - | 1220206.json | 14300 | 2025-05-04 14:54:09 |
| - | 1220206_1703238_Whippy_duck_riding_whippy.jpg | 612695 | 2025-05-04 14:54:09 |
| - | 1235990.json | 16035 | 2025-05-04 20:54:51 |
| - | 1235990_1726507_Whippy_duck_almost_full.jpg | 1615216 | 2025-05-04 20:54:51 |
| - | 1235990_1728446_Whippy_duck_almost_soft.jpg | 1621480 | 2025-05-04 20:54:51 |
| - | 1235990_1741698_Whippy_duck_almost_ink_paint.jpg | 2539845 | 2025-05-04 20:54:50 |
| - | 1239180.json | 12778 | 2025-05-04 22:07:40 |
| - | 1239180_1731280_Whippy_duck_almost_color.png | 24903249 | 2025-05-04 22:07:40 |
| - | 1254116.json | 11280 | 2025-05-05 03:44:29 |
| - | 1254116_1753762_Whippy_gosalyn_looking_at_herself_in_the_mirror.jpg | 859970 | 2025-05-05 03:44:29 |
| - | 1309358.json | 19473 | 2025-05-06 01:27:17 |
| - | 1309358_1837055_Whippy_gyro_banging_a_duck.jpg | 1156614 | 2025-05-06 01:27:16 |
| - | 1309358_1837817_Whippy_gyro_banging_a_duck_mod_internal.jpg | 1269240 | 2025-05-06 01:27:16 |
| - | 1309358_1837818_Whippy_gyro_banging_a_duck_mod_no_shirt.jpg | 1185737 | 2025-05-06 01:27:16 |
| - | 1309358_1837819_Whippy_gyro_banging_a_duck_mod_shirt.jpg | 1191394 | 2025-05-06 01:27:16 |
| - | 1309358_2162435_Whippy_gyro_banging_a_duck_sk.jpg | 1073082 | 2025-05-06 01:27:17 |
| - | 1309985.json | 10387 | 2025-05-06 01:41:37 |
| - | 1309985_1838021_Whippy_gyro_blowing_dewey0.jpg | 947172 | 2025-05-06 01:41:37 |
| - | 1311797.json | 17468 | 2025-05-06 02:22:18 |
| - | 1311797_1840789_Whippy_gyro_blowing_dewey.jpg | 728248 | 2025-05-06 02:22:18 |
| - | 1311797_1840930_Whippy_gyro_blowing_dewey2.jpg | 739945 | 2025-05-06 02:22:17 |
| - | 1311797_2161545_Whippy_gyro_blowing_dewey_sk.jpg | 882587 | 2025-05-06 02:22:18 |
| - | 1315384.json | 16675 | 2025-05-06 03:43:40 |
| - | 1315384_1846266_Whippy_turn_of_the_century_duck.jpg | 2054926 | 2025-05-06 03:43:40 |
| - | 1315384_2161533_Whippy_turn_of_the_century_duck_sk.jpg | 2086134 | 2025-05-06 03:43:41 |
| - | 1321745.json | 10827 | 2025-05-06 06:11:30 |
| - | 1321745_1855487_Whippy_two_ducks_spreadn.jpg | 339011 | 2025-05-06 06:11:30 |
| - | 132350.json | 11851 | 2025-04-16 17:52:11 |
| - | 132350_170698_LooqDrake_louie_-_i_couldnt_sleep_unca_srooge_f.jpg | 1558978 | 2025-04-16 17:52:11 |
| - | 1333733.json | 16067 | 2025-05-06 10:45:28 |
| - | 1333733_1873310_Whippy_ducklings_cumming.jpg | 1191939 | 2025-05-06 10:45:28 |
| - | 1333733_2161521_Whippy_ducklings_cumming_sk.jpg | 1466471 | 2025-05-06 10:45:31 |
| - | 1362220.json | 15242 | 2025-05-06 21:50:14 |
| - | 1362220_1916309_Whippy_moorloon_asks_for_it_color.jpg | 1709969 | 2025-05-06 21:50:14 |
| - | 1362220_2161430_Whippy_moorloon_asks_for_it_sk.jpg | 1317467 | 2025-05-06 21:50:14 |
| - | 1430501.json | 11883 | 2025-05-08 00:46:02 |
| - | 1430501_2018129_Whippy_gosalyn_porn.jpg | 1854658 | 2025-05-08 00:46:02 |
| - | 158672.json | 11192 | 2025-04-17 03:53:27 |
| - | 158672_204400_LooqDrake_ducktales_-_asking_for_more.jpg | 1235449 | 2025-04-17 03:53:27 |
| - | 174983.json | 12311 | 2025-04-17 09:35:45 |
| - | 174983_224917_LooqDrake_huey_crying.jpg | 96059 | 2025-04-17 09:35:45 |
| - | 1754257.json | 26155 | 2025-07-22 07:45:16 |
| - | 1754257_2511910_Whippy_duck_almost_cummy.jpg | 2639288 | 2025-07-22 07:45:17 |
| - | 1754257_2512969_Whippy_duck_almost_3_-_alt_penis.jpg | 5701949 | 2025-07-22 07:45:17 |
| - | 1754257_3048412_Whippy_duck_almost_4_nocum.jpg | 2705895 | 2025-07-22 07:45:17 |
| - | 1754257_3048414_Whippy_duck_almost_4.jpg | 2963108 | 2025-07-22 07:45:16 |
| - | 1754257_3075278_Whippy_duck_almost_4_-_less_curly_penis_sheath.jpg | 2942160 | 2025-07-22 07:45:16 |
| - | 1754257_3075279_Whippy_duck_almost_4_-_less_curly_penis_sheath_nocum.jpg | 2900554 | 2025-07-22 07:45:16 |
| - | 1755628.json | 21037 | 2025-07-22 07:12:11 |
| - | 1755628_2514033_Whippy_baby_plucky_s_baff_with_oscar_vandersnoot.jpg | 1536832 | 2025-07-22 07:12:11 |
| - | 1755628_2514043_Whippy_baby_plucky_s_baff_with_oscar_vandersnoot_sk.jpg | 610341 | 2025-07-22 07:12:11 |
| - | 1780866.json | 10906 | 2019-02-01 02:14:22 |
| - | 1780866_2552991_Whippy_plinko_-_webby_scat_shower.jpg | 1324474 | 2019-02-01 02:14:22 |
| - | 1783243.json | 17409 | 2025-07-21 20:17:44 |
| - | 1783243_2556356_Whippy_baby_daffy_bugs_and_lola_peeking.jpg | 1018018 | 2025-07-21 20:17:44 |
| - | 189496.json | 11302 | 2025-04-17 14:46:19 |
| - | 189496_243565_Looq_captive_duckworth_.jpg | 1131541 | 2025-04-17 14:46:19 |
| - | 2207699.json | 17497 | 2025-07-15 18:01:56 |
| - | 2207699_3207154_Whippy_blue_duck_studies.png | 5219764 | 2025-07-15 18:01:56 |
| - | 2207699_3210440_Whippy_blue_duck_studies_color.png | 6187211 | 2025-07-15 18:01:56 |
| - | 2423124.json | 10419 | 2025-07-13 07:31:53 |
| - | 2423124_3551015_Whippy_back_to_ducks.png | 7677564 | 2025-07-13 07:31:53 |
| - | 245712.json | 10512 | 2025-04-18 10:43:54 |
| - | 245712_314932_Looq_gosalyn_tempting.jpg | 353451 | 2025-04-18 10:43:54 |
| - | 2818363.json | 15803 | 2025-07-09 04:51:59 |
| - | 2818363_4186708_Whippy_streamissions_9.24.2022_2.jpg | 1263797 | 2025-07-09 04:51:59 |
| - | 2834534.json | 17781 | 2025-07-09 00:54:23 |
| - | 2834534_4211875_Whippy_cassie_doodles1.jpg | 1063719 | 2025-07-09 00:54:23 |
| - | 2834534_4211879_Whippy_cassie_doodles_2.jpg | 626164 | 2025-07-09 00:54:23 |
| - | 2834537.json | 24931 | 2025-07-09 00:54:20 |
| - | 2834537_4211884_Whippy_dale_humps_chip_doodles_01.jpg | 331495 | 2025-07-09 00:54:20 |
| - | 2834537_4211885_Whippy_dale_humps_chip_doodles_02.jpg | 157391 | 2025-07-09 00:54:20 |
| - | 2834537_4211886_Whippy_dale_humps_chip_doodles_03.jpg | 202113 | 2025-07-09 00:54:20 |
| - | 2834537_4211887_Whippy_dale_humps_chip_doodles_04.jpg | 245314 | 2025-07-09 00:54:20 |
| - | 2834537_4211888_Whippy_dale_humps_chip_doodles_05.jpg | 263804 | 2025-07-09 00:54:20 |
| - | 2834537_4211894_Whippy_dale_humps_chip_doodles.jpg | 1795252 | 2025-07-09 00:54:20 |
| - | 2848028.json | 14530 | 2025-07-08 21:27:46 |
| - | 2848028_4233323_Whippy_cassie_gosalyn_disrespect_honker.jpg | 895251 | 2025-07-08 21:27:46 |
| - | 2893320.json | 10964 | 2023-01-01 12:02:16 |
| - | 2893320_4307195_Whippy_dux_goof2.jpg | 698777 | 2023-01-01 12:02:16 |
| - | 290315.json | 13523 | 2025-04-19 02:45:15 |
| - | 290315_372356_Looq_buster_hampton_and_plucky.jpg | 1093305 | 2025-04-19 02:45:15 |
| - | 3151673.json | 38917 | 2025-07-02 18:49:39 |
| - | 3151673_4734850_Whippy_kevin_blows_max.jpg | 835639 | 2025-07-02 18:49:39 |
| - | 3151673_4734851_Whippy_kevin_eats_gosalyn.jpg | 555662 | 2025-07-02 18:49:40 |
| - | 3151673_4734852_Whippy_kevin_humps_max.jpg | 340701 | 2025-07-02 18:49:40 |
| - | 3151673_4734853_Whippy_kevin_kit_frotting.jpg | 560824 | 2025-07-02 18:49:39 |
| - | 3151673_4734854_Whippy_kevin_molly.jpg | 724236 | 2025-07-02 18:49:39 |
| - | 3151673_4734855_Whippy_kevin_rides_max.jpg | 547215 | 2025-07-02 18:49:40 |
| - | 3151673_4734856_Whippy_kevin_rims_kit.jpg | 414437 | 2025-07-02 18:49:39 |
| - | 3151673_4734857_Whippy_kevin_rims_kit_v2.jpg | 409293 | 2025-07-02 18:49:39 |
| - | 3151673_4734858_Whippy_max_humps_kevin.jpg | 461908 | 2025-07-02 18:49:40 |
| - | 3158084.json | 23384 | 2025-07-02 16:48:35 |
| - | 3158084_4745606_Whippy_stream_-_kevin_and_gos_2.jpg | 471346 | 2025-07-02 16:48:35 |
| - | 3158084_4745607_Whippy_stream_-_kevin_and_gos_3.jpg | 1044422 | 2025-07-02 16:48:35 |
| - | 3158084_4745608_Whippy_stream_-_kevin_and_gos_4.jpg | 1273735 | 2025-07-02 16:48:36 |
| - | 3158084_4745632_Whippy_stream_-_kevin_and_gos1.jpg | 609449 | 2025-07-02 16:48:35 |
| - | 3185659.json | 18117 | 2025-07-02 07:40:37 |
| - | 3185659_4792055_Whippy_kevin_and_gosalyn_pack_1.jpg | 1623002 | 2025-07-02 07:40:37 |
| - | 3185659_4792059_Whippy_kevin_and_gosalyn_pack_2.jpg | 2597064 | 2025-07-02 07:40:37 |
| - | 3185659_4792060_Whippy_kevin_and_gosalyn_pack_3.jpg | 2619241 | 2025-07-02 07:40:38 |
| - | 3185670.json | 21242 | 2025-07-02 07:40:27 |
| - | 3185670_4792074_Whippy_kevin_and_gosalyn_park_1.jpg | 4798925 | 2025-07-02 07:40:27 |
| - | 3185670_4792084_Whippy_kevin_and_gosalyn_park_2.jpg | 4761797 | 2025-07-02 07:40:27 |
| - | 35173.json | 14038 | 2025-04-15 07:20:33 |
| - | 35173_1027511_Looq_ducktales_boys_on_bed_-_hires.jpg | 894692 | 2025-04-15 07:20:33 |
| - | 35173_40456_LooqDrake_3599053.png | 264816 | 2025-04-15 07:20:33 |
| - | 352563.json | 10515 | 2025-04-20 01:53:00 |
| - | 352563_452925_Looq_duck_load.jpg | 227095 | 2025-04-20 01:53:00 |
| - | 352985.json | 27085 | 2025-04-20 02:02:08 |
| - | 352985_453842_Looq_rimming_train.jpg | 1122394 | 2025-04-20 02:02:08 |
| - | 36957.json | 10290 | 2025-04-15 07:56:00 |
| - | 36957_43563_LooqDrake_1467316.jpg | 190914 | 2025-04-15 07:56:00 |
| - | 38097.json | 10198 | 2025-04-15 08:19:33 |
| - | 38097_45413_LooqDrake_3674557.png | 622842 | 2025-04-15 08:19:33 |
| - | 401041.json | 27943 | 2025-04-20 21:01:40 |
| - | 401041_516521_Looq_rimmin_train_color.jpg | 1053542 | 2025-04-20 21:01:40 |
| - | 484879.json | 13576 | 2025-04-22 04:11:36 |
| - | 484879_630167_Looq_hexley_sexley.jpg | 553316 | 2025-04-22 04:11:36 |
| - | 485968.json | 14737 | 2025-01-10 04:20:42 |
| - | 491326.json | 20176 | 2025-04-13 01:43:20 |
| - | 491326_1013676_Looq_the_boys_job_01.jpg | 641197 | 2025-04-13 01:43:19 |
| - | 491326_638565_Looq_01_2.jpg | 1062085 | 2025-04-13 01:43:19 |
| - | 491326_638566_Looq_02_2.jpg | 1424687 | 2025-04-13 01:43:20 |
| - | 491326_638567_Looq_03_2.jpg | 1843724 | 2025-04-13 01:43:20 |
| - | 496402.json | 21916 | 2018-11-18 23:41:33 |
| - | 731370.json | 25142 | 2025-04-25 20:28:37 |
| - | 731370_983850_Looq_sketch_dump_2011-2012_-_3.jpg | 4140873 | 2025-04-25 20:28:38 |
| - | 731370_983852_Looq_sketch_dump_2011-2012_-_4.jpg | 3842487 | 2025-04-25 20:28:38 |
| - | 731370_983853_Looq_sketch_dump_2011-2012_-_5.jpg | 4760068 | 2025-04-25 20:28:38 |
| - | 731370_983854_Looq_sketch_dump_2011-2012_-_th.jpg | 15101 | 2025-04-25 20:28:37 |
| - | 731370_983855_Looq_sketch_dump_2012-2013_-_1.jpg | 5032675 | 2025-04-25 20:28:37 |
| - | 731370_983856_Looq_sketch_dump_2012-2013_-_2.jpg | 4563241 | 2025-04-25 20:28:37 |
| - | 746226.json | 10682 | 2025-04-26 01:57:18 |
| - | 746226_1006678_Looq_ducktales_warmup_and_sleeping1.jpg | 923317 | 2025-04-26 01:57:18 |
| - | 746227.json | 9704 | 2025-04-26 01:57:19 |
| - | 746227_1006679_Looq_ducktales_warmup_and_sleeping2.jpg | 244957 | 2025-04-26 01:57:19 |
| - | 746707.json | 10774 | 2025-04-26 02:07:58 |
| - | 746707_1007306_Looq_ducktales_modelsheet1.jpg | 2024644 | 2025-04-26 02:07:58 |
| - | 746762.json | 13114 | 2025-04-26 02:09:10 |
| - | 746762_1007371_Looq_ducktales_trio_bangn.jpg | 770555 | 2025-04-26 02:09:10 |
| - | 746762_1012242_Looq_ducktales_trio_bangn_color.jpg | 850230 | 2025-04-26 02:09:10 |
| - | 753811.json | 21393 | 2025-04-26 04:48:36 |
| - | 753811_1017847_Looq_spike___hexley_together.jpg | 1256221 | 2025-04-26 04:48:36 |
| - | 753811_1038687_Looq_spike___hexley_together2.jpg | 732939 | 2025-04-26 04:48:35 |
| - | 768568.json | 10781 | 2025-04-26 10:13:20 |
| - | 768568_1038649_Looq_ducks_humping.jpg | 1077275 | 2025-04-26 10:13:20 |
| - | 972566.json | 16365 | 2025-04-30 15:40:44 |
| - | 972566_1333184_WhippyTail_ducktales_ducks_2010.02.03_2.png | 1743975 | 2025-04-30 15:40:44 |
| - | 972566_1333185_WhippyTail_ducktales_ducks_2010.02.03_3.png | 1860785 | 2025-04-30 15:40:44 |
| - | 972566_1333186_WhippyTail_ducktales_ducks_2010.02.03_4.png | 1004669 | 2025-04-30 15:40:44 |
| - | 972566_1333188_WhippyTail_ducktales_ducks_2010.02.03_1.png | 1373574 | 2025-04-30 15:40:44 |
| - | 975632.json | 11047 | 2025-04-30 16:51:31 |
| - | 975632_1337817_WhippyTail_duck_leaking.png | 1594258 | 2025-04-30 16:51:31 |
| - | 975634.json | 11901 | 2025-04-30 16:51:33 |
| - | 975634_1337820_WhippyTail_donald___nephews_at_peir.png | 1138342 | 2025-04-30 16:51:33 |
| - | 976134.json | 11701 | 2025-04-30 17:02:26 |
| - | 976134_1338571_WhippyTail_duck_trio_orgies.jpg | 2617253 | 2025-04-30 17:02:26 |
| - | 984286.json | 10678 | 2025-04-30 20:12:49 |
| - | 984286_1350697_WhippyTail_triple_quack.png | 3091847 | 2025-04-30 20:12:49 |
| - | 984287.json | 10737 | 2025-04-30 20:12:50 |
| - | 984287_1350698_WhippyTail_wet_duck.png | 1065527 | 2025-04-30 20:12:50 |
| - | 987258.json | 10642 | 2025-04-30 21:19:45 |
| - | 987258_1354931_WhippyTail_two_ducks.png | 1841657 | 2025-04-30 21:19:45 |
| - | 987261.json | 15080 | 2025-04-30 21:19:48 |
| - | 987261_1354934_WhippyTail_mickey_caught.png | 3278703 | 2025-04-30 21:19:48 |
| - | 987267.json | 19219 | 2025-04-30 21:19:56 |
| - | 987267_1354949_WhippyTail_max___mickey___ducks.png | 4288956 | 2025-04-30 21:19:56 |
| - | 989784.json | 10466 | 2025-04-30 22:16:34 |
| - | 989784_1358747_WhippyTail_ducks_fucks.png | 4018345 | 2025-04-30 22:16:34 |
| - | 995450.json | 9526 | 2025-05-01 00:30:01 |
| - | 995450_1367395_WhippyTail_cute_ducks_being_yiffy_playful.png | 714322 | 2025-05-01 00:30:01 |
| - | _pool_info.json | 2725 | 2025-07-21 20:17:44 |